Terminal Aerodrome Forecast
Issued by NWS Wakefield, VA

Home | Current Version | Previous Version | Text Only | Print | Product List | Glossary On
Versions: 1 2 3 4 5 6 7 8 9 10 11 12 13 14 15 16 17 18 19 20 21
000
FTUS41 KAKQ 172340
TAFORF
TAF
KORF 172340Z 1800/1824 VRB04KT P6SM SCT030 BKN250
     FM180200 23003KT P6SM SCT100 BKN250
     FM180800 VRB03KT 5SM BR OVC040
     FM181100 03007KT 4SM BR SCT025 BKN040
     FM181400 06009KT P6SM SCT040 BKN250=

USA.gov is the U.S. government's official web portal to all federal, state and local government web resources and services.